RJOARJFU

Guest
Details From RJOA - HIROSHIMA
To RJFU - NAGASAKI
Flight Number -
Tags decoded
Created
Modified
Stats Distance 180 nm / 334 km
Max Altitude 0 ft / 0 m
Waypoints 5
Social Downloads 1
Likes 0
Share VATSIM

Download

Looking for another format? Having issues loading an existing format? Contact us
Advertisement - Login to hide

Notes

Requested: RJOA IWC SWE SGE JBT RJFU Unmatched points: JBT

Route

RJOA IWC SWE SGE RJFU

ID Type Via Altitude Latitude Longitude Leg Dist Tot Dist Heading (true) Name
O RJOA APT - 0 ft / 0 m 34.43603˚ 132.91944˚ - 0 nm - HIROSHIMA
IWC VOR - 0 ft / 0 m 34.07946˚ 132.14727˚ 43 nm 43 nm 241° / 241° KUGA VORTAC
SWE VOR - 0 ft / 0 m 33.85662˚ 131.02940˚ 57 nm 101 nm 257° / 256° SUOH VOR-DME
SGE VOR - 0 ft / 0 m 33.14862˚ 130.29290˚ 56 nm 157 nm 221° / 221° SAGA VOR-DME
O RJFU APT - 0 ft / 0 m 32.92250˚ 129.92346˚ 23 nm 180 nm 234° / 234° NAGASAKI

Altitude Profile

Advertisement - Login to hide

Weather


0- 5 10 15 20 25 30 35+ Temperature / ° C

Clouds and Precipitation
Forecast for 2017-12-14 00:00 UTC. Updated 2 hours ago

Ground ~20,000 ft ~40,000 ft Winds

RJOA

Details ICAO RJOA (HIJ)
Name HIROSHIMA
Region Japan
Timezone Asia/Tokyo (UTC+9.0)
Stats Elevation 1,088 ft / 332 m (AMSL)
Location 34.436025° 132.919444°
Runways 1
Magnetic Variation 7.696° W

METAR

RJOA 132300Z 33004KT 300V030 9999 -SHSN FEW015 SCT035 BKN050 01/M03 Q1026

Decode

TAF

TAF RJOA 131706Z 1318/1500 32005KT 9999 FEW015 BKN040 BECMG 1403/1405 02005KT

Decode

Departure Runways

ID Width Length Bearing (true) Bearing (mag) Surface Threshold Offset Overrun Length
10 200 ft / 61 m 9,823 ft / 2,994 m 89.99° 97.69° Asphalt 0 ft / 0 m 210 ft / 64 m
28 200 ft / 61 m 9,823 ft / 2,994 m 270.01° 277.71° Asphalt 0 ft / 0 m 210 ft / 64 m

RJFU

Details ICAO RJFU (NGS)
Name NAGASAKI
Region Japan
Timezone Asia/Tokyo (UTC+9.0)
Stats Elevation 15 ft / 5 m (AMSL)
Location 32.922505° 129.923457°
Runways 2
Magnetic Variation 7.237° W

METAR

RJFU 132300Z 10003KT 060V130 9999 FEW025 BKN040 BKN050 05/M00 Q1028

Decode

TAF

TAF RJFU 131707Z 1318/1500 14003KT 9999 FEW020 BKN045 BECMG 1402/1404 02008KT BECMG 1412/1415 14008KT

Decode

Destination Runways

ID Width Length Bearing (true) Bearing (mag) Surface Threshold Offset Overrun Length
14 200 ft / 61 m 9,851 ft / 3,003 m 138.12° 145.36° Asphalt 0 ft / 0 m 200 ft / 61 m
18 100 ft / 30 m 4,363 ft / 1,330 m 174.19° 181.43° Asphalt 245 ft / 75 m 0 ft / 0 m
32 200 ft / 61 m 9,851 ft / 3,003 m 318.14° 325.38° Asphalt 0 ft / 0 m 200 ft / 61 m
36 100 ft / 30 m 4,363 ft / 1,330 m 354.19° 1.43° Asphalt 245 ft / 75 m 0 ft / 0 m

Approach Navaids

Runway Type Ident Frequency Range Bearing (true) Bearing (mag) Slope Elevation
32 Localiser IOM 110.90 MHz 18 nm / 33 km 318.95° 326.19° - 30 ft / 9 m (AMSL)
32 Glidescope IOM 110.90 MHz 10 nm / 19 km 318.13° 325.37° 3.00° 15 ft / 5 m (AMSL)
32 DME IOM 110.90 MHz 18 nm / 33 km - - - 30 ft / 9 m (AMSL)

Popular Alternatives